sensor_id;sensor_type;location;lat;lon;timestamp;pressure;altitude;pressure_sealevel;temperature;humidity
78843;BME280;70542;53.774;-0.352;2023-07-13T00:04:50;101140;;;16;46
78843;BME280;70542;53.774;-0.352;2023-07-13T00:10:29;101140;;;17;46
78843;BME280;70542;53.774;-0.352;2023-07-13T00:16:08;101140;;;17;45
78843;BME280;70542;53.774;-0.352;2023-07-13T00:21:47;101130;;;17;44
78843;BME280;70542;53.774;-0.352;2023-07-13T00:27:26;101130;;;18;44
78843;BME280;70542;53.774;-0.352;2023-07-13T00:33:05;101130;;;17;44
78843;BME280;70542;53.774;-0.352;2023-07-13T00:38:44;101140;;;17;46
78843;BME280;70542;53.774;-0.352;2023-07-13T00:44:22;101140;;;15;49
78843;BME280;70542;53.774;-0.352;2023-07-13T00:50:02;101140;;;16;48
78843;BME280;70542;53.774;-0.352;2023-07-13T00:55:42;101140;;;16;47
78843;BME280;70542;53.774;-0.352;2023-07-13T01:01:21;101140;;;16;47
78843;BME280;70542;53.774;-0.352;2023-07-13T01:07:00;101140;;;16;48
78843;BME280;70542;53.774;-0.352;2023-07-13T01:12:39;101150;;;16;47
78843;BME280;70542;53.774;-0.352;2023-07-13T01:18:19;101150;;;15;49
78843;BME280;70542;53.774;-0.352;2023-07-13T01:23:59;101160;;;15;50
78843;BME280;70542;53.774;-0.352;2023-07-13T01:29:39;101170;;;17;46
78843;BME280;70542;53.774;-0.352;2023-07-13T01:35:28;101170;;;17;46
78843;BME280;70542;53.774;-0.352;2023-07-13T01:41:06;101170;;;16;46
78843;BME280;70542;53.774;-0.352;2023-07-13T01:46:45;101180;;;17;44
78843;BME280;70542;53.774;-0.352;2023-07-13T01:52:29;101180;;;16;47
78843;BME280;70542;53.774;-0.352;2023-07-13T01:58:07;101190;;;18;44
78843;BME280;70542;53.774;-0.352;2023-07-13T02:03:46;101180;;;18;43
78843;BME280;70542;53.774;-0.352;2023-07-13T02:09:25;101180;;;18;42
78843;BME280;70542;53.774;-0.352;2023-07-13T02:15:04;101180;;;17;43
78843;BME280;70542;53.774;-0.352;2023-07-13T02:20:43;101180;;;18;43
78843;BME280;70542;53.774;-0.352;2023-07-13T02:26:22;101170;;;17;45
78843;BME280;70542;53.774;-0.352;2023-07-13T02:32:01;101170;;;18;42
78843;BME280;70542;53.774;-0.352;2023-07-13T02:37:39;101180;;;16;46
78843;BME280;70542;53.774;-0.352;2023-07-13T02:43:18;101180;;;18;43
78843;BME280;70542;53.774;-0.352;2023-07-13T02:48:56;101180;;;17;44
78843;BME280;70542;53.774;-0.352;2023-07-13T02:54:35;101180;;;18;43
78843;BME280;70542;53.774;-0.352;2023-07-13T03:00:14;101170;;;15;48
78843;BME280;70542;53.774;-0.352;2023-07-13T03:05:59;101170;;;15;48
78843;BME280;70542;53.774;-0.352;2023-07-13T03:11:38;101180;;;18;42
78843;BME280;70542;53.774;-0.352;2023-07-13T03:17:17;101180;;;16;47
78843;BME280;70542;53.774;-0.352;2023-07-13T03:22:56;101180;;;18;42
78843;BME280;70542;53.774;-0.352;2023-07-13T03:28:35;101190;;;17;45
78843;BME280;70542;53.774;-0.352;2023-07-13T03:34:13;101190;;;18;42
78843;BME280;70542;53.774;-0.352;2023-07-13T03:39:52;101190;;;17;43
78843;BME280;70542;53.774;-0.352;2023-07-13T03:45:31;101190;;;17;44
78843;BME280;70542;53.774;-0.352;2023-07-13T03:51:10;101200;;;18;42
78843;BME280;70542;53.774;-0.352;2023-07-13T03:56:49;101200;;;17;43
78843;BME280;70542;53.774;-0.352;2023-07-13T04:02:32;101200;;;17;44
78843;BME280;70542;53.774;-0.352;2023-07-13T04:08:11;101210;;;18;42
78843;BME280;70542;53.774;-0.352;2023-07-13T04:13:55;101210;;;18;43
78843;BME280;70542;53.774;-0.352;2023-07-13T04:19:34;101200;;;18;44
78843;BME280;70542;53.774;-0.352;2023-07-13T04:25:12;101210;;;17;47
78843;BME280;70542;53.774;-0.352;2023-07-13T04:30:55;101210;;;17;46
78843;BME280;70542;53.774;-0.352;2023-07-13T04:36:34;101220;;;16;49
78843;BME280;70542;53.774;-0.352;2023-07-13T04:42:13;101220;;;16;48
78843;BME280;70542;53.774;-0.352;2023-07-13T04:47:52;101220;;;16;48
78843;BME280;70542;53.774;-0.352;2023-07-13T04:53:31;101220;;;16;49
78843;BME280;70542;53.774;-0.352;2023-07-13T04:59:10;101230;;;15;50
78843;BME280;70542;53.774;-0.352;2023-07-13T05:04:49;101230;;;16;49
78843;BME280;70542;53.774;-0.352;2023-07-13T05:10:28;101240;;;15;50
78843;BME280;70542;53.774;-0.352;2023-07-13T05:16:07;101250;;;16;49
78843;BME280;70542;53.774;-0.352;2023-07-13T05:21:45;101260;;;16;49
78843;BME280;70542;53.774;-0.352;2023-07-13T05:27:24;101260;;;16;49
78843;BME280;70542;53.774;-0.352;2023-07-13T05:33:03;101270;;;15;51
78843;BME280;70542;53.774;-0.352;2023-07-13T05:38:42;101280;;;16;50
78843;BME280;70542;53.774;-0.352;2023-07-13T05:44:21;101290;;;16;49
78843;BME280;70542;53.774;-0.352;2023-07-13T05:50:01;101290;;;16;50
78843;BME280;70542;53.774;-0.352;2023-07-13T05:55:47;101300;;;16;49
78843;BME280;70542;53.774;-0.352;2023-07-13T06:01:26;101310;;;16;51
78843;BME280;70542;53.774;-0.352;2023-07-13T06:07:05;101320;;;15;52
78843;BME280;70542;53.774;-0.352;2023-07-13T06:12:43;101320;;;17;48
78843;BME280;70542;53.774;-0.352;2023-07-13T06:18:23;101330;;;16;50
78843;BME280;70542;53.774;-0.352;2023-07-13T06:24:07;101340;;;15;53
78843;BME280;70542;53.774;-0.352;2023-07-13T06:29:51;101340;;;15;53
78843;BME280;70542;53.774;-0.352;2023-07-13T06:35:30;101340;;;15;53
78843;BME280;70542;53.774;-0.352;2023-07-13T06:41:09;101340;;;15;52
78843;BME280;70542;53.774;-0.352;2023-07-13T06:46:48;101350;;;15;53
78843;BME280;70542;53.774;-0.352;2023-07-13T06:52:27;101360;;;16;52
78843;BME280;70542;53.774;-0.352;2023-07-13T06:58:06;101360;;;16;53
78843;BME280;70542;53.774;-0.352;2023-07-13T07:03:45;101360;;;16;53
78843;BME280;70542;53.774;-0.352;2023-07-13T07:09:23;101360;;;16;51
78843;BME280;70542;53.774;-0.352;2023-07-13T07:15:02;101360;;;17;48
78843;BME280;70542;53.774;-0.352;2023-07-13T07:20:41;101360;;;17;47
78843;BME280;70542;53.774;-0.352;2023-07-13T07:26:19;101380;;;16;49
78843;BME280;70542;53.774;-0.352;2023-07-13T07:31:58;101380;;;17;48
78843;BME280;70542;53.774;-0.352;2023-07-13T07:37:37;101380;;;16;49
78843;BME280;70542;53.774;-0.352;2023-07-13T07:43:15;101380;;;18;46
78843;BME280;70542;53.774;-0.352;2023-07-13T07:48:55;101380;;;18;45
78843;BME280;70542;53.774;-0.352;2023-07-13T07:54:34;101380;;;17;46
78843;BME280;70542;53.774;-0.352;2023-07-13T08:00:13;101380;;;18;43
78843;BME280;70542;53.774;-0.352;2023-07-13T08:05:52;101390;;;19;42
78843;BME280;70542;53.774;-0.352;2023-07-13T08:11:31;101400;;;17;45
78843;BME280;70542;53.774;-0.352;2023-07-13T08:17:10;101400;;;16;50
78843;BME280;70542;53.774;-0.352;2023-07-13T08:22:48;101400;;;18;47
78843;BME280;70542;53.774;-0.352;2023-07-13T08:28:27;101400;;;16;50
78843;BME280;70542;53.774;-0.352;2023-07-13T08:34:06;101400;;;17;46
78843;BME280;70542;53.774;-0.352;2023-07-13T08:39:45;101400;;;18;44
78843;BME280;70542;53.774;-0.352;2023-07-13T08:45:28;101390;;;18;42
78843;BME280;70542;53.774;-0.352;2023-07-13T08:51:28;101390;;;18;42
78843;BME280;70542;53.774;-0.352;2023-07-13T08:57:08;101390;;;18;42
78843;BME280;70542;53.774;-0.352;2023-07-13T09:02:52;101390;;;18;41
78843;BME280;70542;53.774;-0.352;2023-07-13T09:08:43;101380;;;18;40
78843;BME280;70542;53.774;-0.352;2023-07-13T09:14:39;101390;;;18;40
78843;BME280;70542;53.774;-0.352;2023-07-13T09:20:25;101390;;;19;39
78843;BME280;70542;53.774;-0.352;2023-07-13T09:26:19;101390;;;19;38
78843;BME280;70542;53.774;-0.352;2023-07-13T09:31:54;101400;;;19;39
78843;BME280;70542;53.774;-0.352;2023-07-13T09:37:34;101390;;;19;37
78843;BME280;70542;53.774;-0.352;2023-07-13T09:43:15;101390;;;19;38
78843;BME280;70542;53.774;-0.352;2023-07-13T09:48:56;101390;;;19;39
78843;BME280;70542;53.774;-0.352;2023-07-13T09:54:36;101390;;;20;37
78843;BME280;70542;53.774;-0.352;2023-07-13T10:00:21;101400;;;20;35
78843;BME280;70542;53.774;-0.352;2023-07-13T10:06:10;101400;;;19;36
78843;BME280;70542;53.774;-0.352;2023-07-13T10:11:50;101410;;;19;37
78843;BME280;70542;53.774;-0.352;2023-07-13T10:17:31;101410;;;19;36
78843;BME280;70542;53.774;-0.352;2023-07-13T10:23:15;101410;;;20;36
78843;BME280;70542;53.774;-0.352;2023-07-13T10:29:01;101420;;;19;36
78843;BME280;70542;53.774;-0.352;2023-07-13T10:34:43;101410;;;19;34
78843;BME280;70542;53.774;-0.352;2023-07-13T10:40:27;101410;;;20;34
78843;BME280;70542;53.774;-0.352;2023-07-13T10:46:08;101400;;;21;33
78843;BME280;70542;53.774;-0.352;2023-07-13T10:51:48;101410;;;20;33
78843;BME280;70542;53.774;-0.352;2023-07-13T10:57:27;101420;;;19;33
78843;BME280;70542;53.774;-0.352;2023-07-13T11:03:14;101420;;;19;34
78843;BME280;70542;53.774;-0.352;2023-07-13T11:08:54;101410;;;20;34
78843;BME280;70542;53.774;-0.352;2023-07-13T11:14:36;101420;;;20;33
78843;BME280;70542;53.774;-0.352;2023-07-13T11:31:58;101420;;;20;31
78843;BME280;70542;53.774;-0.352;2023-07-13T11:37:38;101420;;;19;31
78843;BME280;70542;53.774;-0.352;2023-07-13T11:43:17;101410;;;20;31
78843;BME280;70542;53.774;-0.352;2023-07-13T11:48:55;101420;;;21;31
78843;BME280;70542;53.774;-0.352;2023-07-13T11:54:43;101420;;;21;30
78843;BME280;70542;53.774;-0.352;2023-07-13T12:00:28;101410;;;19;34
78843;BME280;70542;53.774;-0.352;2023-07-13T12:11:57;101410;;;21;32
78843;BME280;70542;53.774;-0.352;2023-07-13T12:17:36;101410;;;20;34
78843;BME280;70542;53.774;-0.352;2023-07-13T12:23:21;101400;;;21;30
78843;BME280;70542;53.774;-0.352;2023-07-13T12:29:05;101400;;;21;29
78843;BME280;70542;53.774;-0.352;2023-07-13T12:34:51;101400;;;21;28
78843;BME280;70542;53.774;-0.352;2023-07-13T12:40:33;101380;;;22;27
78843;BME280;70542;53.774;-0.352;2023-07-13T12:46:18;101390;;;22;27
78843;BME280;70542;53.774;-0.352;2023-07-13T12:51:58;101390;;;23;26
78843;BME280;70542;53.774;-0.352;2023-07-13T12:57:40;101390;;;23;27
78843;BME280;70542;53.774;-0.352;2023-07-13T13:03:24;101380;;;22;29
78843;BME280;70542;53.774;-0.352;2023-07-13T13:09:11;101400;;;21;31
78843;BME280;70542;53.774;-0.352;2023-07-13T13:14:50;101400;;;20;31
78843;BME280;70542;53.774;-0.352;2023-07-13T13:20:29;101400;;;20;32
78843;BME280;70542;53.774;-0.352;2023-07-13T13:26:10;101410;;;21;32
78843;BME280;70542;53.774;-0.352;2023-07-13T13:31:53;101400;;;21;31
78843;BME280;70542;53.774;-0.352;2023-07-13T13:37:32;101390;;;22;29
78843;BME280;70542;53.774;-0.352;2023-07-13T13:43:15;101390;;;21;30
78843;BME280;70542;53.774;-0.352;2023-07-13T13:48:54;101400;;;21;31
78843;BME280;70542;53.774;-0.352;2023-07-13T13:54:33;101400;;;21;31
78843;BME280;70542;53.774;-0.352;2023-07-13T14:00:13;101390;;;21;30
78843;BME280;70542;53.774;-0.352;2023-07-13T14:05:53;101390;;;20;32
78843;BME280;70542;53.774;-0.352;2023-07-13T14:11:32;101380;;;22;30
78843;BME280;70542;53.774;-0.352;2023-07-13T14:17:20;101390;;;21;31
78843;BME280;70542;53.774;-0.352;2023-07-13T14:22:59;101380;;;22;29
78843;BME280;70542;53.774;-0.352;2023-07-13T14:28:39;101380;;;23;28
78843;BME280;70542;53.774;-0.352;2023-07-13T14:34:19;101380;;;24;26
78843;BME280;70542;53.774;-0.352;2023-07-13T14:39:57;101370;;;24;26
78843;BME280;70542;53.774;-0.352;2023-07-13T14:45:38;101370;;;23;27
78843;BME280;70542;53.774;-0.352;2023-07-13T14:51:18;101370;;;23;27
78843;BME280;70542;53.774;-0.352;2023-07-13T14:56:56;101360;;;23;27
78843;BME280;70542;53.774;-0.352;2023-07-13T15:02:36;101360;;;24;26
78843;BME280;70542;53.774;-0.352;2023-07-13T15:08:21;101350;;;24;26
78843;BME280;70542;53.774;-0.352;2023-07-13T15:13:59;101350;;;23;26
78843;BME280;70542;53.774;-0.352;2023-07-13T15:19:38;101360;;;22;28
78843;BME280;70542;53.774;-0.352;2023-07-13T15:25:19;101360;;;22;28
78843;BME280;70542;53.774;-0.352;2023-07-13T15:30:58;101360;;;22;29
78843;BME280;70542;53.774;-0.352;2023-07-13T15:36:36;101360;;;21;30
78843;BME280;70542;53.774;-0.352;2023-07-13T15:42:20;101350;;;23;28
78843;BME280;70542;53.774;-0.352;2023-07-13T15:48:00;101350;;;23;28
78843;BME280;70542;53.774;-0.352;2023-07-13T15:53:44;101350;;;22;28
78843;BME280;70542;53.774;-0.352;2023-07-13T15:59:23;101340;;;23;27
78843;BME280;70542;53.774;-0.352;2023-07-13T16:05:02;101350;;;23;29
78843;BME280;70542;53.774;-0.352;2023-07-13T16:10:41;101340;;;22;28
78843;BME280;70542;53.774;-0.352;2023-07-13T16:16:19;101340;;;22;29
78843;BME280;70542;53.774;-0.352;2023-07-13T16:21:59;101350;;;22;29
78843;BME280;70542;53.774;-0.352;2023-07-13T16:27:38;101350;;;22;30
78843;BME280;70542;53.774;-0.352;2023-07-13T16:33:16;101350;;;21;31
78843;BME280;70542;53.774;-0.352;2023-07-13T16:38:55;101350;;;21;30
78843;BME280;70542;53.774;-0.352;2023-07-13T16:44:33;101340;;;23;29
78843;BME280;70542;53.774;-0.352;2023-07-13T16:50:15;101350;;;23;28
78843;BME280;70542;53.774;-0.352;2023-07-13T16:55:54;101360;;;22;30
78843;BME280;70542;53.774;-0.352;2023-07-13T17:01:34;101360;;;22;29
78843;BME280;70542;53.774;-0.352;2023-07-13T17:07:13;101350;;;23;29
78843;BME280;70542;53.774;-0.352;2023-07-13T17:12:54;101340;;;24;28
78843;BME280;70542;53.774;-0.352;2023-07-13T17:18:33;101360;;;23;29
78843;BME280;70542;53.774;-0.352;2023-07-13T17:24:17;101360;;;23;29
78843;BME280;70542;53.774;-0.352;2023-07-13T17:29:56;101350;;;22;31
78843;BME280;70542;53.774;-0.352;2023-07-13T17:35:35;101360;;;23;30
78843;BME280;70542;53.774;-0.352;2023-07-13T17:41:14;101360;;;24;28
78843;BME280;70542;53.774;-0.352;2023-07-13T17:46:53;101360;;;24;26
78843;BME280;70542;53.774;-0.352;2023-07-13T17:52:32;101360;;;23;28
78843;BME280;70542;53.774;-0.352;2023-07-13T17:58:11;101350;;;23;28
78843;BME280;70542;53.774;-0.352;2023-07-13T18:04:03;101360;;;23;29
78843;BME280;70542;53.774;-0.352;2023-07-13T18:09:42;101370;;;23;30
78843;BME280;70542;53.774;-0.352;2023-07-13T18:15:23;101370;;;21;33
78843;BME280;70542;53.774;-0.352;2023-07-13T18:21:04;101370;;;21;33
78843;BME280;70542;53.774;-0.352;2023-07-13T18:26:45;101370;;;21;34
78843;BME280;70542;53.774;-0.352;2023-07-13T18:32:23;101370;;;20;34
78843;BME280;70542;53.774;-0.352;2023-07-13T18:38:02;101370;;;21;34
78843;BME280;70542;53.774;-0.352;2023-07-13T18:43:45;101360;;;21;34
78843;BME280;70542;53.774;-0.352;2023-07-13T18:49:24;101370;;;21;33
78843;BME280;70542;53.774;-0.352;2023-07-13T18:55:14;101370;;;22;33
78843;BME280;70542;53.774;-0.352;2023-07-13T19:00:53;101380;;;22;31
78843;BME280;70542;53.774;-0.352;2023-07-13T19:06:31;101380;;;21;33
78843;BME280;70542;53.774;-0.352;2023-07-13T19:12:16;101380;;;21;35
78843;BME280;70542;53.774;-0.352;2023-07-13T19:17:56;101390;;;21;34
78843;BME280;70542;53.774;-0.352;2023-07-13T19:23:37;101390;;;24;30
78843;BME280;70542;53.774;-0.352;2023-07-13T19:29:18;101390;;;23;32
78843;BME280;70542;53.774;-0.352;2023-07-13T19:34:58;101390;;;23;32
78843;BME280;70542;53.774;-0.352;2023-07-13T19:40:37;101400;;;23;31
78843;BME280;70542;53.774;-0.352;2023-07-13T19:46:20;101400;;;22;31
78843;BME280;70542;53.774;-0.352;2023-07-13T19:52:02;101410;;;24;30
78843;BME280;70542;53.774;-0.352;2023-07-13T19:57:40;101410;;;22;32
78843;BME280;70542;53.774;-0.352;2023-07-13T20:03:19;101410;;;21;35
78843;BME280;70542;53.774;-0.352;2023-07-13T20:08:59;101410;;;21;35
78843;BME280;70542;53.774;-0.352;2023-07-13T20:14:38;101420;;;21;35
78843;BME280;70542;53.774;-0.352;2023-07-13T20:20:26;101430;;;19;39
78843;BME280;70542;53.774;-0.352;2023-07-13T20:26:08;101440;;;20;37
78843;BME280;70542;53.774;-0.352;2023-07-13T20:31:48;101440;;;20;37
78843;BME280;70542;53.774;-0.352;2023-07-13T20:37:31;101440;;;21;35
78843;BME280;70542;53.774;-0.352;2023-07-13T20:43:10;101450;;;21;36
78843;BME280;70542;53.774;-0.352;2023-07-13T20:48:50;101450;;;23;33
78843;BME280;70542;53.774;-0.352;2023-07-13T20:54:28;101440;;;22;33
78843;BME280;70542;53.774;-0.352;2023-07-13T21:00:13;101450;;;22;33
78843;BME280;70542;53.774;-0.352;2023-07-13T21:06:06;101450;;;22;33
78843;BME280;70542;53.774;-0.352;2023-07-13T21:11:45;101450;;;21;34
78843;BME280;70542;53.774;-0.352;2023-07-13T21:17:24;101460;;;21;35
78843;BME280;70542;53.774;-0.352;2023-07-13T21:23:12;101450;;;20;37
78843;BME280;70542;53.774;-0.352;2023-07-13T21:28:56;101460;;;21;37
78843;BME280;70542;53.774;-0.352;2023-07-13T21:34:35;101460;;;20;36
78843;BME280;70542;53.774;-0.352;2023-07-13T21:40:15;101460;;;21;35
78843;BME280;70542;53.774;-0.352;2023-07-13T21:45:55;101460;;;21;35
78843;BME280;70542;53.774;-0.352;2023-07-13T21:51:34;101460;;;21;35
78843;BME280;70542;53.774;-0.352;2023-07-13T21:57:14;101460;;;22;33
78843;BME280;70542;53.774;-0.352;2023-07-13T22:02:56;101470;;;21;33
78843;BME280;70542;53.774;-0.352;2023-07-13T22:08:41;101470;;;21;35
78843;BME280;70542;53.774;-0.352;2023-07-13T22:14:24;101470;;;21;35
78843;BME280;70542;53.774;-0.352;2023-07-13T22:20:04;101470;;;20;35
78843;BME280;70542;53.774;-0.352;2023-07-13T22:25:44;101480;;;21;35
78843;BME280;70542;53.774;-0.352;2023-07-13T22:31:25;101480;;;21;33
78843;BME280;70542;53.774;-0.352;2023-07-13T22:37:04;101480;;;21;34
78843;BME280;70542;53.774;-0.352;2023-07-13T22:42:51;101480;;;21;35
78843;BME280;70542;53.774;-0.352;2023-07-13T22:48:37;101470;;;21;36
78843;BME280;70542;53.774;-0.352;2023-07-13T22:54:16;101480;;;21;34
78843;BME280;70542;53.774;-0.352;2023-07-13T23:05:44;101480;;;21;34
78843;BME280;70542;53.774;-0.352;2023-07-13T23:11:24;101470;;;20;35
78843;BME280;70542;53.774;-0.352;2023-07-13T23:17:04;101470;;;21;34
78843;BME280;70542;53.774;-0.352;2023-07-13T23:22:42;101470;;;21;35
78843;BME280;70542;53.774;-0.352;2023-07-13T23:28:31;101470;;;21;36
78843;BME280;70542;53.774;-0.352;2023-07-13T23:34:13;101460;;;19;38
78843;BME280;70542;53.774;-0.352;2023-07-13T23:39:52;101460;;;20;35
78843;BME280;70542;53.774;-0.352;2023-07-13T23:45:31;101460;;;17;42
78843;BME280;70542;53.774;-0.352;2023-07-13T23:51:17;101460;;;15;45
78843;BME280;70542;53.774;-0.352;2023-07-13T23:57:07;101450;;;19;38
